sensor_id;sensor_type;location;lat;lon;timestamp;temperature;humidity
15364;DHT22;7781;49.690;6.472;2022-12-05T00:00:21;1.50;99.90
15364;DHT22;7781;49.690;6.472;2022-12-05T00:02:51;1.50;99.90
15364;DHT22;7781;49.690;6.472;2022-12-05T00:05:28;1.40;99.90
15364;DHT22;7781;49.690;6.472;2022-12-05T00:08:19;1.40;99.90
15364;DHT22;7781;49.690;6.472;2022-12-05T00:10:58;1.40;99.90
15364;DHT22;7781;49.690;6.472;2022-12-05T00:13:35;1.40;99.90
15364;DHT22;7781;49.690;6.472;2022-12-05T00:16:11;1.30;99.90
15364;DHT22;7781;49.690;6.472;2022-12-05T00:18:51;1.40;99.90
15364;DHT22;7781;49.690;6.472;2022-12-05T00:21:37;1.40;99.90
15364;DHT22;7781;49.690;6.472;2022-12-05T00:24:13;1.30;99.90
15364;DHT22;7781;49.690;6.472;2022-12-05T00:26:48;1.30;99.90
15364;DHT22;7781;49.690;6.472;2022-12-05T00:29:26;1.30;99.90
15364;DHT22;7781;49.690;6.472;2022-12-05T00:31:57;1.40;99.90
15364;DHT22;7781;49.690;6.472;2022-12-05T00:34:28;1.30;99.90
15364;DHT22;7781;49.690;6.472;2022-12-05T00:37:06;1.30;99.90
15364;DHT22;7781;49.690;6.472;2022-12-05T00:39:35;1.40;99.90
15364;DHT22;7781;49.690;6.472;2022-12-05T00:42:05;1.40;99.90
15364;DHT22;7781;49.690;6.472;2022-12-05T00:44:37;1.40;99.90
15364;DHT22;7781;49.690;6.472;2022-12-05T00:47:08;1.30;99.90
15364;DHT22;7781;49.690;6.472;2022-12-05T00:49:37;1.40;99.90
15364;DHT22;7781;49.690;6.472;2022-12-05T00:52:10;1.30;99.90
15364;DHT22;7781;49.690;6.472;2022-12-05T00:54:43;1.30;99.90
15364;DHT22;7781;49.690;6.472;2022-12-05T00:57:13;1.30;99.90
15364;DHT22;7781;49.690;6.472;2022-12-05T00:59:47;1.30;99.90
15364;DHT22;7781;49.690;6.472;2022-12-05T01:02:17;1.40;99.90
15364;DHT22;7781;49.690;6.472;2022-12-05T01:04:55;1.40;99.90
15364;DHT22;7781;49.690;6.472;2022-12-05T01:07:30;1.40;99.90
15364;DHT22;7781;49.690;6.472;2022-12-05T01:10:03;1.30;99.90
15364;DHT22;7781;49.690;6.472;2022-12-05T01:12:36;1.30;99.90
15364;DHT22;7781;49.690;6.472;2022-12-05T01:15:11;1.30;99.90
15364;DHT22;7781;49.690;6.472;2022-12-05T01:17:40;1.40;99.90
15364;DHT22;7781;49.690;6.472;2022-12-05T01:20:11;1.40;99.90
15364;DHT22;7781;49.690;6.472;2022-12-05T01:22:43;1.40;99.90
15364;DHT22;7781;49.690;6.472;2022-12-05T01:25:12;1.40;99.90
15364;DHT22;7781;49.690;6.472;2022-12-05T01:27:43;1.40;99.90
15364;DHT22;7781;49.690;6.472;2022-12-05T01:30:18;1.40;99.90
15364;DHT22;7781;49.690;6.472;2022-12-05T01:32:48;1.50;99.90
15364;DHT22;7781;49.690;6.472;2022-12-05T01:35:21;1.50;99.90
15364;DHT22;7781;49.690;6.472;2022-12-05T01:37:53;1.50;99.90
15364;DHT22;7781;49.690;6.472;2022-12-05T01:40:23;1.50;99.90
15364;DHT22;7781;49.690;6.472;2022-12-05T01:42:53;1.50;99.90
15364;DHT22;7781;49.690;6.472;2022-12-05T01:45:30;1.50;99.90
15364;DHT22;7781;49.690;6.472;2022-12-05T01:48:03;1.40;99.90
15364;DHT22;7781;49.690;6.472;2022-12-05T01:50:33;1.50;99.90
15364;DHT22;7781;49.690;6.472;2022-12-05T01:53:04;1.40;99.90
15364;DHT22;7781;49.690;6.472;2022-12-05T01:55:34;1.40;99.90
15364;DHT22;7781;49.690;6.472;2022-12-05T01:58:07;1.40;99.90
15364;DHT22;7781;49.690;6.472;2022-12-05T02:00:40;1.50;99.90
15364;DHT22;7781;49.690;6.472;2022-12-05T02:03:16;1.50;99.90
15364;DHT22;7781;49.690;6.472;2022-12-05T02:05:47;1.40;99.90
15364;DHT22;7781;49.690;6.472;2022-12-05T02:08:22;1.50;99.90
15364;DHT22;7781;49.690;6.472;2022-12-05T02:10:56;1.40;99.90
15364;DHT22;7781;49.690;6.472;2022-12-05T02:13:42;1.40;99.90
15364;DHT22;7781;49.690;6.472;2022-12-05T02:16:22;1.50;99.90
15364;DHT22;7781;49.690;6.472;2022-12-05T02:19:08;1.50;99.90
15364;DHT22;7781;49.690;6.472;2022-12-05T02:24:54;1.40;99.90
15364;DHT22;7781;49.690;6.472;2022-12-05T02:27:51;1.40;99.90
15364;DHT22;7781;49.690;6.472;2022-12-05T02:30:38;1.50;99.90
15364;DHT22;7781;49.690;6.472;2022-12-05T02:33:14;1.40;99.90
15364;DHT22;7781;49.690;6.472;2022-12-05T02:35:52;1.50;99.90
15364;DHT22;7781;49.690;6.472;2022-12-05T02:38:27;1.50;99.90
15364;DHT22;7781;49.690;6.472;2022-12-05T02:41:10;1.60;99.90
15364;DHT22;7781;49.690;6.472;2022-12-05T02:43:47;1.60;99.90
15364;DHT22;7781;49.690;6.472;2022-12-05T02:46:23;1.70;99.90
15364;DHT22;7781;49.690;6.472;2022-12-05T02:48:56;1.70;99.90
15364;DHT22;7781;49.690;6.472;2022-12-05T02:51:29;1.80;99.90
15364;DHT22;7781;49.690;6.472;2022-12-05T02:54:02;1.80;99.90
15364;DHT22;7781;49.690;6.472;2022-12-05T02:56:38;1.80;99.90
15364;DHT22;7781;49.690;6.472;2022-12-05T02:59:07;1.90;99.90
15364;DHT22;7781;49.690;6.472;2022-12-05T03:01:38;1.90;99.90
15364;DHT22;7781;49.690;6.472;2022-12-05T03:04:11;1.90;99.90
15364;DHT22;7781;49.690;6.472;2022-12-05T03:06:42;1.90;99.90
15364;DHT22;7781;49.690;6.472;2022-12-05T03:09:17;1.90;99.90
15364;DHT22;7781;49.690;6.472;2022-12-05T03:11:51;1.90;99.90
15364;DHT22;7781;49.690;6.472;2022-12-05T03:14:25;1.90;99.90
15364;DHT22;7781;49.690;6.472;2022-12-05T03:17:00;1.90;99.90
15364;DHT22;7781;49.690;6.472;2022-12-05T03:19:34;1.90;99.90
15364;DHT22;7781;49.690;6.472;2022-12-05T03:22:07;1.90;99.90
15364;DHT22;7781;49.690;6.472;2022-12-05T03:24:41;1.90;99.90
15364;DHT22;7781;49.690;6.472;2022-12-05T03:27:16;1.90;99.90
15364;DHT22;7781;49.690;6.472;2022-12-05T03:29:54;2.00;99.90
15364;DHT22;7781;49.690;6.472;2022-12-05T03:32:31;1.90;99.90
15364;DHT22;7781;49.690;6.472;2022-12-05T03:35:07;1.90;99.90
15364;DHT22;7781;49.690;6.472;2022-12-05T03:37:44;1.90;99.90
15364;DHT22;7781;49.690;6.472;2022-12-05T03:40:24;1.90;99.90
15364;DHT22;7781;49.690;6.472;2022-12-05T03:42:59;1.90;99.90
15364;DHT22;7781;49.690;6.472;2022-12-05T03:45:33;1.90;99.90
15364;DHT22;7781;49.690;6.472;2022-12-05T03:48:10;1.90;99.90
15364;DHT22;7781;49.690;6.472;2022-12-05T03:50:44;1.90;99.90
15364;DHT22;7781;49.690;6.472;2022-12-05T03:53:16;1.90;99.90
15364;DHT22;7781;49.690;6.472;2022-12-05T03:55:53;1.90;99.90
15364;DHT22;7781;49.690;6.472;2022-12-05T03:58:30;1.90;99.90
15364;DHT22;7781;49.690;6.472;2022-12-05T04:01:02;1.90;99.90
15364;DHT22;7781;49.690;6.472;2022-12-05T04:03:39;1.90;99.90
15364;DHT22;7781;49.690;6.472;2022-12-05T04:06:16;1.90;99.90
15364;DHT22;7781;49.690;6.472;2022-12-05T04:08:52;2.00;99.90
15364;DHT22;7781;49.690;6.472;2022-12-05T04:11:25;1.90;99.90
15364;DHT22;7781;49.690;6.472;2022-12-05T04:13:58;1.90;99.90
15364;DHT22;7781;49.690;6.472;2022-12-05T04:16:30;1.90;99.90
15364;DHT22;7781;49.690;6.472;2022-12-05T04:19:24;1.90;99.90
15364;DHT22;7781;49.690;6.472;2022-12-05T04:22:18;1.90;99.90
15364;DHT22;7781;49.690;6.472;2022-12-05T04:24:48;2.00;99.90
15364;DHT22;7781;49.690;6.472;2022-12-05T04:27:40;2.00;99.90
15364;DHT22;7781;49.690;6.472;2022-12-05T04:30:13;2.00;99.90
15364;DHT22;7781;49.690;6.472;2022-12-05T04:32:51;2.00;99.90
15364;DHT22;7781;49.690;6.472;2022-12-05T04:35:33;1.90;99.90
15364;DHT22;7781;49.690;6.472;2022-12-05T04:38:13;1.90;99.90
15364;DHT22;7781;49.690;6.472;2022-12-05T04:40:47;1.80;99.90
15364;DHT22;7781;49.690;6.472;2022-12-05T04:43:28;1.80;99.90
15364;DHT22;7781;49.690;6.472;2022-12-05T04:46:03;1.80;99.90
15364;DHT22;7781;49.690;6.472;2022-12-05T04:48:37;1.80;99.90
15364;DHT22;7781;49.690;6.472;2022-12-05T04:51:22;1.80;99.90
15364;DHT22;7781;49.690;6.472;2022-12-05T04:53:58;1.90;99.90
15364;DHT22;7781;49.690;6.472;2022-12-05T04:56:33;1.90;99.90
15364;DHT22;7781;49.690;6.472;2022-12-05T04:59:14;1.90;99.90
15364;DHT22;7781;49.690;6.472;2022-12-05T05:01:54;2.00;99.90
15364;DHT22;7781;49.690;6.472;2022-12-05T05:04:32;2.00;99.90
15364;DHT22;7781;49.690;6.472;2022-12-05T05:07:06;2.00;99.90
15364;DHT22;7781;49.690;6.472;2022-12-05T05:09:36;2.00;99.90
15364;DHT22;7781;49.690;6.472;2022-12-05T05:12:06;2.00;99.90
15364;DHT22;7781;49.690;6.472;2022-12-05T05:14:43;2.10;99.90
15364;DHT22;7781;49.690;6.472;2022-12-05T05:17:17;2.00;99.90
15364;DHT22;7781;49.690;6.472;2022-12-05T05:19:46;2.10;99.90
15364;DHT22;7781;49.690;6.472;2022-12-05T05:22:19;2.00;99.90
15364;DHT22;7781;49.690;6.472;2022-12-05T05:24:48;2.00;99.90
15364;DHT22;7781;49.690;6.472;2022-12-05T05:27:20;2.00;99.90
15364;DHT22;7781;49.690;6.472;2022-12-05T05:29:51;2.00;99.90
15364;DHT22;7781;49.690;6.472;2022-12-05T05:32:31;2.10;99.90
15364;DHT22;7781;49.690;6.472;2022-12-05T05:35:05;2.10;99.90
15364;DHT22;7781;49.690;6.472;2022-12-05T05:37:37;2.10;99.90
15364;DHT22;7781;49.690;6.472;2022-12-05T05:40:13;2.20;99.90
15364;DHT22;7781;49.690;6.472;2022-12-05T05:42:44;2.20;99.90
15364;DHT22;7781;49.690;6.472;2022-12-05T05:45:17;2.20;99.90
15364;DHT22;7781;49.690;6.472;2022-12-05T05:47:48;2.20;99.90
15364;DHT22;7781;49.690;6.472;2022-12-05T05:50:20;2.20;99.90
15364;DHT22;7781;49.690;6.472;2022-12-05T05:52:50;2.30;99.90
15364;DHT22;7781;49.690;6.472;2022-12-05T05:55:18;2.30;99.90
15364;DHT22;7781;49.690;6.472;2022-12-05T05:57:47;2.20;99.90
15364;DHT22;7781;49.690;6.472;2022-12-05T06:00:16;2.10;99.90
15364;DHT22;7781;49.690;6.472;2022-12-05T06:02:45;2.20;99.90
15364;DHT22;7781;49.690;6.472;2022-12-05T06:05:16;2.20;99.90
15364;DHT22;7781;49.690;6.472;2022-12-05T06:07:51;2.20;99.90
15364;DHT22;7781;49.690;6.472;2022-12-05T06:10:25;2.20;99.90
15364;DHT22;7781;49.690;6.472;2022-12-05T06:12:59;2.10;99.90
15364;DHT22;7781;49.690;6.472;2022-12-05T06:15:29;2.20;99.90
15364;DHT22;7781;49.690;6.472;2022-12-05T06:18:00;2.20;99.90
15364;DHT22;7781;49.690;6.472;2022-12-05T06:20:32;2.20;99.90
15364;DHT22;7781;49.690;6.472;2022-12-05T06:23:10;2.30;99.90
15364;DHT22;7781;49.690;6.472;2022-12-05T06:25:46;2.40;99.90
15364;DHT22;7781;49.690;6.472;2022-12-05T06:28:18;2.40;99.90
15364;DHT22;7781;49.690;6.472;2022-12-05T06:30:51;2.40;99.90
15364;DHT22;7781;49.690;6.472;2022-12-05T06:33:22;2.40;99.90
15364;DHT22;7781;49.690;6.472;2022-12-05T06:36:03;2.30;99.90
15364;DHT22;7781;49.690;6.472;2022-12-05T06:38:36;2.40;99.90
15364;DHT22;7781;49.690;6.472;2022-12-05T06:41:15;2.40;99.90
15364;DHT22;7781;49.690;6.472;2022-12-05T06:43:44;2.40;99.90
15364;DHT22;7781;49.690;6.472;2022-12-05T06:46:16;2.40;99.90
15364;DHT22;7781;49.690;6.472;2022-12-05T06:48:50;2.40;99.90
15364;DHT22;7781;49.690;6.472;2022-12-05T06:51:20;2.40;99.90
15364;DHT22;7781;49.690;6.472;2022-12-05T06:53:58;2.30;99.90
15364;DHT22;7781;49.690;6.472;2022-12-05T06:56:32;2.30;99.90
15364;DHT22;7781;49.690;6.472;2022-12-05T06:59:07;2.20;99.90
15364;DHT22;7781;49.690;6.472;2022-12-05T07:01:54;2.20;99.90
15364;DHT22;7781;49.690;6.472;2022-12-05T07:04:23;2.20;99.90
15364;DHT22;7781;49.690;6.472;2022-12-05T07:06:55;2.20;99.90
15364;DHT22;7781;49.690;6.472;2022-12-05T07:09:27;2.20;99.90
15364;DHT22;7781;49.690;6.472;2022-12-05T07:12:13;2.20;99.90
15364;DHT22;7781;49.690;6.472;2022-12-05T07:14:45;2.20;99.90
15364;DHT22;7781;49.690;6.472;2022-12-05T07:17:19;2.20;99.90
15364;DHT22;7781;49.690;6.472;2022-12-05T07:19:56;2.10;99.90
15364;DHT22;7781;49.690;6.472;2022-12-05T07:22:25;2.10;99.90
15364;DHT22;7781;49.690;6.472;2022-12-05T07:24:56;2.10;99.90
15364;DHT22;7781;49.690;6.472;2022-12-05T07:27:29;2.20;99.90
15364;DHT22;7781;49.690;6.472;2022-12-05T07:30:01;2.20;99.90
15364;DHT22;7781;49.690;6.472;2022-12-05T07:32:32;2.20;99.90
15364;DHT22;7781;49.690;6.472;2022-12-05T07:35:06;2.30;99.90
15364;DHT22;7781;49.690;6.472;2022-12-05T07:37:41;2.30;99.90
15364;DHT22;7781;49.690;6.472;2022-12-05T07:40:24;2.30;99.90
15364;DHT22;7781;49.690;6.472;2022-12-05T07:42:56;2.40;99.90
15364;DHT22;7781;49.690;6.472;2022-12-05T07:45:28;2.40;99.90
15364;DHT22;7781;49.690;6.472;2022-12-05T07:48:00;2.30;99.90
15364;DHT22;7781;49.690;6.472;2022-12-05T07:50:36;2.30;99.90
15364;DHT22;7781;49.690;6.472;2022-12-05T07:53:05;2.40;99.90
15364;DHT22;7781;49.690;6.472;2022-12-05T07:55:38;2.30;99.90
15364;DHT22;7781;49.690;6.472;2022-12-05T07:58:07;2.30;99.90
15364;DHT22;7781;49.690;6.472;2022-12-05T08:00:37;2.40;99.90
15364;DHT22;7781;49.690;6.472;2022-12-05T08:03:06;2.40;99.90
15364;DHT22;7781;49.690;6.472;2022-12-05T08:05:37;2.40;99.90
15364;DHT22;7781;49.690;6.472;2022-12-05T08:08:06;2.50;99.90
15364;DHT22;7781;49.690;6.472;2022-12-05T08:10:39;2.50;99.90
15364;DHT22;7781;49.690;6.472;2022-12-05T08:13:09;2.50;99.90
15364;DHT22;7781;49.690;6.472;2022-12-05T08:15:39;2.50;99.90
15364;DHT22;7781;49.690;6.472;2022-12-05T08:18:08;2.50;99.90
15364;DHT22;7781;49.690;6.472;2022-12-05T08:20:44;2.60;99.90
15364;DHT22;7781;49.690;6.472;2022-12-05T08:23:19;2.60;99.90
15364;DHT22;7781;49.690;6.472;2022-12-05T08:26:18;2.60;99.90
15364;DHT22;7781;49.690;6.472;2022-12-05T08:28:52;2.60;99.90
15364;DHT22;7781;49.690;6.472;2022-12-05T08:31:27;2.60;99.90
15364;DHT22;7781;49.690;6.472;2022-12-05T08:33:58;2.70;99.90
15364;DHT22;7781;49.690;6.472;2022-12-05T08:36:30;2.70;99.90
15364;DHT22;7781;49.690;6.472;2022-12-05T08:39:04;2.70;99.90
15364;DHT22;7781;49.690;6.472;2022-12-05T08:41:41;2.70;99.90
15364;DHT22;7781;49.690;6.472;2022-12-05T08:44:15;2.70;99.90
15364;DHT22;7781;49.690;6.472;2022-12-05T08:46:47;2.80;99.90
15364;DHT22;7781;49.690;6.472;2022-12-05T08:49:18;2.80;99.90
15364;DHT22;7781;49.690;6.472;2022-12-05T08:51:49;2.80;99.90
15364;DHT22;7781;49.690;6.472;2022-12-05T08:54:21;2.80;99.90
15364;DHT22;7781;49.690;6.472;2022-12-05T08:56:58;2.80;99.90
15364;DHT22;7781;49.690;6.472;2022-12-05T08:59:28;2.80;99.90
15364;DHT22;7781;49.690;6.472;2022-12-05T09:01:59;2.80;99.90
15364;DHT22;7781;49.690;6.472;2022-12-05T09:04:28;2.80;99.90
15364;DHT22;7781;49.690;6.472;2022-12-05T09:07:01;2.90;99.90
15364;DHT22;7781;49.690;6.472;2022-12-05T09:09:34;2.90;99.90
15364;DHT22;7781;49.690;6.472;2022-12-05T09:12:06;3.00;99.90
15364;DHT22;7781;49.690;6.472;2022-12-05T09:14:35;3.00;99.90
15364;DHT22;7781;49.690;6.472;2022-12-05T09:17:09;3.00;99.90
15364;DHT22;7781;49.690;6.472;2022-12-05T09:19:40;2.90;99.90
15364;DHT22;7781;49.690;6.472;2022-12-05T09:22:11;2.90;99.90
15364;DHT22;7781;49.690;6.472;2022-12-05T09:24:42;3.00;99.90
15364;DHT22;7781;49.690;6.472;2022-12-05T09:27:13;3.00;99.90
15364;DHT22;7781;49.690;6.472;2022-12-05T09:29:48;3.00;99.90
15364;DHT22;7781;49.690;6.472;2022-12-05T09:32:19;3.00;99.90
15364;DHT22;7781;49.690;6.472;2022-12-05T09:34:49;3.10;99.90
15364;DHT22;7781;49.690;6.472;2022-12-05T09:37:18;3.10;99.90
15364;DHT22;7781;49.690;6.472;2022-12-05T09:40:06;3.10;99.90
15364;DHT22;7781;49.690;6.472;2022-12-05T09:42:55;3.10;99.90
15364;DHT22;7781;49.690;6.472;2022-12-05T09:45:34;3.10;99.90
15364;DHT22;7781;49.690;6.472;2022-12-05T09:48:06;3.20;99.90
15364;DHT22;7781;49.690;6.472;2022-12-05T09:50:43;3.20;99.90
15364;DHT22;7781;49.690;6.472;2022-12-05T09:53:23;3.20;99.90
15364;DHT22;7781;49.690;6.472;2022-12-05T09:56:01;3.20;99.90
15364;DHT22;7781;49.690;6.472;2022-12-05T09:58:42;3.20;99.90
15364;DHT22;7781;49.690;6.472;2022-12-05T10:01:22;3.20;99.90
15364;DHT22;7781;49.690;6.472;2022-12-05T10:04:04;3.20;99.90
15364;DHT22;7781;49.690;6.472;2022-12-05T10:06:38;3.20;99.90
15364;DHT22;7781;49.690;6.472;2022-12-05T10:09:20;3.30;99.90
15364;DHT22;7781;49.690;6.472;2022-12-05T10:11:56;3.30;99.90
15364;DHT22;7781;49.690;6.472;2022-12-05T10:14:34;3.20;99.90
15364;DHT22;7781;49.690;6.472;2022-12-05T10:17:19;3.20;99.90
15364;DHT22;7781;49.690;6.472;2022-12-05T10:19:57;3.20;99.90
15364;DHT22;7781;49.690;6.472;2022-12-05T10:22:35;3.30;99.90
15364;DHT22;7781;49.690;6.472;2022-12-05T10:25:09;3.30;99.90
15364;DHT22;7781;49.690;6.472;2022-12-05T10:27:44;3.40;99.90
15364;DHT22;7781;49.690;6.472;2022-12-05T10:30:22;3.40;99.90
15364;DHT22;7781;49.690;6.472;2022-12-05T10:32:55;3.40;99.90
15364;DHT22;7781;49.690;6.472;2022-12-05T10:35:34;3.50;99.90
15364;DHT22;7781;49.690;6.472;2022-12-05T10:38:09;3.50;99.90
15364;DHT22;7781;49.690;6.472;2022-12-05T10:40:40;3.50;99.90
15364;DHT22;7781;49.690;6.472;2022-12-05T10:43:12;3.50;99.90
15364;DHT22;7781;49.690;6.472;2022-12-05T10:45:47;3.50;99.90
15364;DHT22;7781;49.690;6.472;2022-12-05T10:48:18;3.50;99.90
15364;DHT22;7781;49.690;6.472;2022-12-05T10:50:53;3.50;99.90
15364;DHT22;7781;49.690;6.472;2022-12-05T10:53:28;3.50;99.90
15364;DHT22;7781;49.690;6.472;2022-12-05T10:55:59;3.50;99.90
15364;DHT22;7781;49.690;6.472;2022-12-05T10:58:54;3.50;99.90
15364;DHT22;7781;49.690;6.472;2022-12-05T11:01:30;3.50;99.90
15364;DHT22;7781;49.690;6.472;2022-12-05T11:04:03;3.50;99.90
15364;DHT22;7781;49.690;6.472;2022-12-05T11:06:49;3.50;99.90
15364;DHT22;7781;49.690;6.472;2022-12-05T11:09:22;3.50;99.90
15364;DHT22;7781;49.690;6.472;2022-12-05T11:12:14;3.50;99.90
15364;DHT22;7781;49.690;6.472;2022-12-05T11:14:57;3.60;99.90
15364;DHT22;7781;49.690;6.472;2022-12-05T11:17:32;3.60;99.90
15364;DHT22;7781;49.690;6.472;2022-12-05T11:20:33;3.60;99.90
15364;DHT22;7781;49.690;6.472;2022-12-05T11:23:24;3.60;99.90
15364;DHT22;7781;49.690;6.472;2022-12-05T11:25:56;3.70;99.90
15364;DHT22;7781;49.690;6.472;2022-12-05T11:28:35;3.80;99.90
15364;DHT22;7781;49.690;6.472;2022-12-05T11:31:20;3.80;99.90
15364;DHT22;7781;49.690;6.472;2022-12-05T11:34:20;3.80;99.90
15364;DHT22;7781;49.690;6.472;2022-12-05T11:36:55;3.80;99.90
15364;DHT22;7781;49.690;6.472;2022-12-05T11:39:28;3.90;99.90
15364;DHT22;7781;49.690;6.472;2022-12-05T11:42:18;3.90;99.90
15364;DHT22;7781;49.690;6.472;2022-12-05T11:45:11;3.90;99.90
15364;DHT22;7781;49.690;6.472;2022-12-05T11:48:00;4.00;99.90
15364;DHT22;7781;49.690;6.472;2022-12-05T11:50:41;4.00;99.90
15364;DHT22;7781;49.690;6.472;2022-12-05T11:53:35;4.10;99.90
15364;DHT22;7781;49.690;6.472;2022-12-05T11:56:14;4.00;99.90
15364;DHT22;7781;49.690;6.472;2022-12-05T11:59:07;4.00;99.90
15364;DHT22;7781;49.690;6.472;2022-12-05T12:01:46;4.10;99.90
15364;DHT22;7781;49.690;6.472;2022-12-05T12:04:43;4.10;99.90
15364;DHT22;7781;49.690;6.472;2022-12-05T12:07:24;4.10;99.90
15364;DHT22;7781;49.690;6.472;2022-12-05T12:10:12;4.10;99.90
15364;DHT22;7781;49.690;6.472;2022-12-05T12:12:59;4.10;99.90
15364;DHT22;7781;49.690;6.472;2022-12-05T12:15:56;4.20;99.90
15364;DHT22;7781;49.690;6.472;2022-12-05T12:18:49;4.20;99.90
15364;DHT22;7781;49.690;6.472;2022-12-05T12:21:34;4.30;99.90
15364;DHT22;7781;49.690;6.472;2022-12-05T12:24:15;4.30;99.90
15364;DHT22;7781;49.690;6.472;2022-12-05T12:26:56;4.30;99.90
15364;DHT22;7781;49.690;6.472;2022-12-05T12:29:45;4.30;99.90
15364;DHT22;7781;49.690;6.472;2022-12-05T12:32:27;4.30;99.90
15364;DHT22;7781;49.690;6.472;2022-12-05T12:35:12;4.30;99.90
15364;DHT22;7781;49.690;6.472;2022-12-05T12:38:16;4.30;99.90
15364;DHT22;7781;49.690;6.472;2022-12-05T12:40:53;4.30;99.90
15364;DHT22;7781;49.690;6.472;2022-12-05T12:43:40;4.20;99.90
15364;DHT22;7781;49.690;6.472;2022-12-05T12:46:31;4.20;99.90
15364;DHT22;7781;49.690;6.472;2022-12-05T12:49:20;4.20;99.90
15364;DHT22;7781;49.690;6.472;2022-12-05T12:52:02;4.20;99.90
15364;DHT22;7781;49.690;6.472;2022-12-05T12:57:46;4.20;99.90
15364;DHT22;7781;49.690;6.472;2022-12-05T13:00:29;4.20;99.90
15364;DHT22;7781;49.690;6.472;2022-12-05T13:03:10;4.30;99.90
15364;DHT22;7781;49.690;6.472;2022-12-05T13:05:48;4.20;99.90
15364;DHT22;7781;49.690;6.472;2022-12-05T13:08:23;4.30;99.90
15364;DHT22;7781;49.690;6.472;2022-12-05T13:10:58;4.30;99.90
15364;DHT22;7781;49.690;6.472;2022-12-05T13:13:34;4.30;99.90
15364;DHT22;7781;49.690;6.472;2022-12-05T13:16:12;4.30;99.90
15364;DHT22;7781;49.690;6.472;2022-12-05T13:18:48;4.30;99.90
15364;DHT22;7781;49.690;6.472;2022-12-05T13:21:19;4.40;99.90
15364;DHT22;7781;49.690;6.472;2022-12-05T13:23:59;4.40;99.90
15364;DHT22;7781;49.690;6.472;2022-12-05T13:26:31;4.40;99.90
15364;DHT22;7781;49.690;6.472;2022-12-05T13:29:13;4.40;99.90
15364;DHT22;7781;49.690;6.472;2022-12-05T13:31:49;4.40;99.90
15364;DHT22;7781;49.690;6.472;2022-12-05T13:34:45;4.40;99.90
15364;DHT22;7781;49.690;6.472;2022-12-05T13:37:22;4.40;99.90
15364;DHT22;7781;49.690;6.472;2022-12-05T13:40:24;4.40;99.90
15364;DHT22;7781;49.690;6.472;2022-12-05T13:43:41;4.40;99.90
15364;DHT22;7781;49.690;6.472;2022-12-05T13:46:43;4.50;99.90
15364;DHT22;7781;49.690;6.472;2022-12-05T13:49:28;4.40;99.90
15364;DHT22;7781;49.690;6.472;2022-12-05T13:52:06;4.50;99.90
15364;DHT22;7781;49.690;6.472;2022-12-05T13:54:47;4.50;99.90
15364;DHT22;7781;49.690;6.472;2022-12-05T13:57:51;4.50;99.90
15364;DHT22;7781;49.690;6.472;2022-12-05T14:00:30;4.40;99.90
15364;DHT22;7781;49.690;6.472;2022-12-05T14:03:04;4.50;99.90
15364;DHT22;7781;49.690;6.472;2022-12-05T14:05:47;4.50;99.90
15364;DHT22;7781;49.690;6.472;2022-12-05T14:11:26;4.50;99.90
15364;DHT22;7781;49.690;6.472;2022-12-05T14:14:03;4.40;99.90
15364;DHT22;7781;49.690;6.472;2022-12-05T14:16:49;4.40;99.90
15364;DHT22;7781;49.690;6.472;2022-12-05T14:19:54;4.50;99.90
15364;DHT22;7781;49.690;6.472;2022-12-05T14:22:45;4.40;99.90
15364;DHT22;7781;49.690;6.472;2022-12-05T14:25:35;4.50;99.90
15364;DHT22;7781;49.690;6.472;2022-12-05T14:28:45;4.50;99.90
15364;DHT22;7781;49.690;6.472;2022-12-05T14:34:22;4.50;99.90
15364;DHT22;7781;49.690;6.472;2022-12-05T14:37:00;4.40;99.90
15364;DHT22;7781;49.690;6.472;2022-12-05T14:39:37;4.40;99.90
15364;DHT22;7781;49.690;6.472;2022-12-05T14:42:22;4.40;99.90
15364;DHT22;7781;49.690;6.472;2022-12-05T14:44:59;4.50;99.90
15364;DHT22;7781;49.690;6.472;2022-12-05T14:47:32;4.40;99.90
15364;DHT22;7781;49.690;6.472;2022-12-05T14:50:33;4.40;99.90
15364;DHT22;7781;49.690;6.472;2022-12-05T14:53:32;4.50;99.90
15364;DHT22;7781;49.690;6.472;2022-12-05T14:56:15;4.40;99.90
15364;DHT22;7781;49.690;6.472;2022-12-05T14:59:20;4.50;99.90
15364;DHT22;7781;49.690;6.472;2022-12-05T15:01:57;4.50;99.90
15364;DHT22;7781;49.690;6.472;2022-12-05T15:04:34;4.40;99.90
15364;DHT22;7781;49.690;6.472;2022-12-05T15:07:09;4.40;99.90
15364;DHT22;7781;49.690;6.472;2022-12-05T15:10:00;4.40;99.90
15364;DHT22;7781;49.690;6.472;2022-12-05T15:12:40;4.40;99.90
15364;DHT22;7781;49.690;6.472;2022-12-05T15:15:18;4.40;99.90
15364;DHT22;7781;49.690;6.472;2022-12-05T15:17:58;4.40;99.90
15364;DHT22;7781;49.690;6.472;2022-12-05T15:20:40;4.40;99.90
15364;DHT22;7781;49.690;6.472;2022-12-05T15:23:38;4.50;99.90
15364;DHT22;7781;49.690;6.472;2022-12-05T15:26:23;4.50;99.90
15364;DHT22;7781;49.690;6.472;2022-12-05T15:29:22;4.50;99.90
15364;DHT22;7781;49.690;6.472;2022-12-05T15:31:54;4.40;99.90
15364;DHT22;7781;49.690;6.472;2022-12-05T15:34:29;4.40;99.90
15364;DHT22;7781;49.690;6.472;2022-12-05T15:37:03;4.40;99.90
15364;DHT22;7781;49.690;6.472;2022-12-05T15:39:51;4.40;99.90
15364;DHT22;7781;49.690;6.472;2022-12-05T15:42:26;4.40;99.90
15364;DHT22;7781;49.690;6.472;2022-12-05T15:45:27;4.40;99.90
15364;DHT22;7781;49.690;6.472;2022-12-05T15:48:12;4.40;99.90
15364;DHT22;7781;49.690;6.472;2022-12-05T15:50:51;4.40;99.90
15364;DHT22;7781;49.690;6.472;2022-12-05T15:53:28;4.40;99.90
15364;DHT22;7781;49.690;6.472;2022-12-05T15:56:08;4.40;99.90
15364;DHT22;7781;49.690;6.472;2022-12-05T15:58:48;4.40;99.90
15364;DHT22;7781;49.690;6.472;2022-12-05T16:01:24;4.40;99.90
15364;DHT22;7781;49.690;6.472;2022-12-05T16:03:59;4.30;99.90
15364;DHT22;7781;49.690;6.472;2022-12-05T16:06:34;4.30;99.90
15364;DHT22;7781;49.690;6.472;2022-12-05T16:09:12;4.30;99.90
15364;DHT22;7781;49.690;6.472;2022-12-05T16:11:53;4.30;99.90
15364;DHT22;7781;49.690;6.472;2022-12-05T16:14:35;4.20;99.90
15364;DHT22;7781;49.690;6.472;2022-12-05T16:17:36;4.20;99.90
15364;DHT22;7781;49.690;6.472;2022-12-05T16:20:23;4.20;99.90
15364;DHT22;7781;49.690;6.472;2022-12-05T16:22:54;4.20;99.90
15364;DHT22;7781;49.690;6.472;2022-12-05T16:25:27;4.20;99.90
15364;DHT22;7781;49.690;6.472;2022-12-05T16:28:02;4.20;99.90
15364;DHT22;7781;49.690;6.472;2022-12-05T16:30:33;4.10;99.90
15364;DHT22;7781;49.690;6.472;2022-12-05T16:33:05;4.10;99.90
15364;DHT22;7781;49.690;6.472;2022-12-05T16:35:36;4.10;99.90
15364;DHT22;7781;49.690;6.472;2022-12-05T16:38:11;4.10;99.90
15364;DHT22;7781;49.690;6.472;2022-12-05T16:40:51;4.10;99.90
15364;DHT22;7781;49.690;6.472;2022-12-05T16:43:26;4.10;99.90
15364;DHT22;7781;49.690;6.472;2022-12-05T16:49:14;4.00;99.90
15364;DHT22;7781;49.690;6.472;2022-12-05T16:51:45;4.00;99.90
15364;DHT22;7781;49.690;6.472;2022-12-05T16:54:20;4.00;99.90
15364;DHT22;7781;49.690;6.472;2022-12-05T16:56:48;4.00;99.90
15364;DHT22;7781;49.690;6.472;2022-12-05T16:59:21;4.00;99.90
15364;DHT22;7781;49.690;6.472;2022-12-05T17:01:52;4.00;99.90
15364;DHT22;7781;49.690;6.472;2022-12-05T17:04:20;4.00;99.90
15364;DHT22;7781;49.690;6.472;2022-12-05T17:06:49;4.00;99.90
15364;DHT22;7781;49.690;6.472;2022-12-05T17:09:20;4.10;99.90
15364;DHT22;7781;49.690;6.472;2022-12-05T17:11:51;4.00;99.90
15364;DHT22;7781;49.690;6.472;2022-12-05T17:14:22;4.00;99.90
15364;DHT22;7781;49.690;6.472;2022-12-05T17:16:52;4.00;99.90
15364;DHT22;7781;49.690;6.472;2022-12-05T17:19:20;4.00;99.90
15364;DHT22;7781;49.690;6.472;2022-12-05T17:21:49;4.00;99.90